Latest Weather Observations for McArthur River Mine

IDD60801

Issued at 9:11 am CST Thursday 23 January 2020 (issued every 10 minutes, with the page automatically refreshed every 10 minutes)

About weather observations | Map of weather stations | Latest weather observations for NT | Other Formats
Station Details ID: 014704 Name: MCARTHUR RIVER MINE AIRPORT Lat: -16.44 Lon: 136.08 Height: 40.0 m
Data from the previous 72 hours. | See also: Recent months at McArthur River Mine
Date/Time
CST
Temp
°C
App
Temp
°C
Dew
Point
°C
Rel
Hum
%
Delta-T
°C
Wind Press
QNH
hPa
Press
MSL
hPa
Rain since
9am
mm
Dir  Spd
km/h
Gust
km/h
Spd
kts
Gust
kts
23/09:09am 25.4 30.5 24.7 96 0.5 ENE 6 7 3 4 1007.0 1006.7 0.6
23/09:00am 25.4 30.5 24.7 96 0.5 ENE 6 9 3 5 1007.1 1006.8 34.4
23/08:30am 25.3 30.2 24.6 96 0.5 NE 7 9 4 5 1006.9 1006.6 32.4
23/08:18am 25.3 30.2 24.6 96 0.5 NNE 7 11 4 6 1006.9 1006.6 31.8
23/08:03am 25.3 29.8 24.6 96 0.5 NE 9 17 5 9 1006.8 1006.5 31.2
23/08:00am 25.3 29.8 24.6 96 0.5 NE 9 17 5 9 1006.7 1006.4 30.8
23/07:48am 25.3 30.2 24.6 96 0.5 NNE 7 11 4 6 1006.7 1006.4 29.4
23/07:39am 25.3 30.2 24.6 96 0.5 NNE 7 11 4 6 1006.7 1006.4 28.6
23/07:30am 25.3 29.8 24.6 96 0.5 NNE 9 13 5 7 1006.6 1006.3 28.2
23/07:17am 25.2 30.0 24.5 96 0.5 NNE 7 11 4 6 1006.6 1006.3 27.2
23/07:01am 25.1 30.0 24.4 96 0.5 NNE 6 7 3 4 1006.5 1006.2 26.8
23/07:00am 25.1 30.0 24.4 96 0.5 NNE 6 7 3 4 1006.5 1006.2 26.6
23/06:45am 25.1 29.4 24.2 95 0.6 N 9 11 5 6 1006.2 1005.9 25.6
23/06:36am 25.1 29.4 24.2 95 0.6 N 9 15 5 8 1006.2 1005.9 25.2
23/06:30am 25.1 28.6 24.2 95 0.6 N 13 20 7 11 1006.1 1005.8 24.8
23/06:21am 25.3 28.5 24.4 95 0.6 N 15 26 8 14 1006.1 1005.8 24.0
23/06:00am 25.5 30.5 24.8 96 0.5 NE 7 11 4 6 1005.7 1005.4 21.8
23/05:40am 25.4 30.3 24.7 96 0.5 NE 7 11 4 6 1005.5 1005.2 20.8
23/05:33am 25.3 30.2 24.6 96 0.5 NE 7 9 4 5 1005.5 1005.2 20.4
23/05:30am 25.4 30.3 24.7 96 0.5 NE 7 9 4 5 1005.5 1005.2 20.2
23/05:00am 25.4 30.5 24.7 96 0.5 NNE 6 7 3 4 1005.3 1005.0 15.4
23/04:33am 25.5 30.0 24.6 95 0.6 NNE 9 11 5 6 1005.2 1004.9 11.4
23/04:30am 25.5 30.4 24.6 95 0.6 NNE 7 11 4 6 1005.1 1004.8 11.0
23/04:00am 25.7 30.9 24.8 95 0.6 NE 6 11 3 6 1004.9 1004.6 9.4
23/03:30am 25.7 30.8 24.7 94 0.7 NNE 6 11 3 6 1004.8 1004.5 8.0
23/03:00am 25.7 30.5 24.5 93 0.8 NNE 7 13 4 7 1005.1 1004.8 7.0
23/02:48am 25.8 30.3 24.6 93 0.8 N 9 13 5 7 1005.3 1005.0 7.0
23/02:30am 26.0 30.6 24.8 93 0.8 NNE 9 15 5 8 1005.5 1005.2 7.0
23/02:19am 26.1 31.3 25.1 94 0.7 NNE 7 11 4 6 1005.7 1005.4 7.0
23/02:00am 26.1 30.8 24.9 93 0.8 NE 9 11 5 6 1005.8 1005.5 7.0
23/01:30am 26.3 31.3 24.5 90 1.3 NE 6 9 3 5 1005.8 1005.5 6.8
23/01:00am 26.5 31.3 24.5 89 1.4 NNE 7 11 4 6 1006.2 1005.9 6.8
23/12:30am 26.5 31.2 24.3 88 1.5 NNE 7 11 4 6 1006.6 1006.3 6.8
23/12:00am 26.3 31.2 24.3 89 1.4 NNE 6 9 3 5 1006.7 1006.4 6.8
 
Date/Time
CST
Temp
°C
App
Temp
°C
Dew
Point
°C
Rel
Hum
%
Delta-T
°C
Wind Press
QNH
hPa
Press
MSL
hPa
Rain since
9am
mm
Dir  Spd
km/h
Gust
km/h
Spd
kts
Gust
kts
22/11:30pm 26.4 31.2 24.4 89 1.4 NNE 7 9 4 5 1007.1 1006.8 6.8
22/11:00pm 26.4 30.8 24.4 89 1.4 NNE 9 13 5 7 1007.4 1007.1 6.8
22/10:30pm 26.4 30.8 24.4 89 1.4 NNE 9 13 5 7 1007.4 1007.1 6.8
22/10:00pm 26.6 31.7 25.0 91 1.1 N 7 9 4 5 1007.2 1006.9 6.8
22/09:30pm 26.6 31.6 24.8 90 1.3 NNE 7 11 4 6 1006.8 1006.5 6.8
22/09:00pm 26.5 31.8 24.9 91 1.1 N 6 9 3 5 1006.2 1005.9 6.8
22/08:30pm 26.5 31.2 24.9 91 1.1 N 9 13 5 7 1005.9 1005.6 6.8
22/08:00pm 26.3 31.4 24.9 92 1.0 NNE 7 9 4 5 1006.2 1005.9 6.8
22/07:30pm 25.9 30.8 24.3 91 1.1 NE 6 6 3 3 1006.2 1005.9 6.8
22/07:00pm 25.9 30.4 23.9 89 1.4 NE 7 11 4 6 1005.5 1005.2 6.8
22/06:30pm 26.2 30.4 24.1 88 1.5 N 9 17 5 9 1005.2 1004.9 6.6
22/06:00pm 27.9 29.6 23.1 75 3.3 N 19 35 10 19 1005.0 1004.7 6.2
22/05:30pm 30.3 35.0 24.0 69 4.4 NNW 6 9 3 5 1004.7 1004.4 6.2
22/05:00pm 30.1 34.5 23.8 69 4.4 NW 7 11 4 6 1004.6 1004.3 6.2
22/04:30pm 29.3 33.4 24.0 73 3.7 W 9 17 5 9 1003.8 1003.5 6.2
22/04:00pm 28.6 31.8 24.4 78 2.9 NW 15 28 8 15 1003.5 1003.2 6.2
22/03:44pm 28.3 31.8 24.9 82 2.4 WNW 15 24 8 13 1004.0 1003.7 6.2
22/03:30pm 27.6 30.3 24.8 85 2.0 W 19 41 10 22 1004.3 1004.0 6.2
22/03:22pm 27.8 27.8 23.0 75 3.3 WNW 28 41 15 22 1004.2 1003.9 3.0
22/03:00pm 33.3 35.3 23.0 54 7.1 N 17 24 9 13 1003.8 1003.5 0.0
22/02:30pm 31.9 35.0 22.9 59 6.2 N 11 22 6 12 1004.1 1003.8 0.0
22/02:00pm 32.5 36.7 23.4 58 6.3 N 7 11 4 6 1004.3 1004.0 0.0
22/01:30pm 33.3 36.7 23.3 55 7.0 N 11 17 6 9 1004.8 1004.5 0.0
22/01:00pm 32.9 35.3 23.0 56 6.8 NNE 15 26 8 14 1005.5 1005.2 0.0
22/12:57pm 32.7 35.2 23.1 57 6.6 NNE 15 26 8 14 1005.5 1005.2 0.0
22/12:38pm 33.3 35.9 22.7 53 7.3 NNW 13 19 7 10 1005.8 1005.5 0.0
22/12:30pm 33.3 36.7 23.3 55 7.0 NNE 11 19 6 10 1005.9 1005.6 0.0
22/12:00pm 33.1 36.3 23.1 55 6.9 N 11 19 6 10 1006.7 1006.4 0.0
22/11:30am 33.1 37.1 23.7 57 6.6 N 9 19 5 10 1007.3 1007.0 0.0
22/11:00am 31.5 34.3 23.6 63 5.5 NNW 15 22 8 12 1007.9 1007.6 0.0
22/10:30am 30.8 33.5 23.5 65 5.1 N 15 22 8 12 1008.2 1007.9 0.0
22/10:00am 31.0 33.4 23.6 64 5.1 N 17 24 9 13 1008.3 1008.0 0.0
22/09:30am 29.9 32.1 23.3 67 4.5 N 17 22 9 12 1008.6 1008.3 0.0
22/09:00am 29.1 32.1 24.0 74 3.5 NNW 15 22 8 12 1008.8 1008.5 12.8
22/08:30am 28.2 32.6 24.4 80 2.6 N 9 15 5 8 1008.8 1008.5 12.8
22/08:00am 27.4 31.3 24.3 83 2.1 NNE 11 17 6 9 1008.7 1008.4 12.8
22/07:30am 25.8 30.6 24.2 91 1.1 NE 6 9 3 5 1008.6 1008.3 12.8
22/07:00am 25.4 30.2 24.2 93 0.8 NE 6 9 3 5 1008.3 1008.0 12.8
22/06:30am 24.8 30.6 23.9 95 0.6 CALM 0 6 0 3 1007.7 1007.4 12.8
22/06:00am 24.7 29.7 23.8 95 0.6 NNE 4 9 2 5 1007.4 1007.1 12.8
22/05:30am 24.7 29.1 23.8 95 0.6 NNE 7 9 4 5 1007.2 1006.9 12.8
22/05:00am 24.7 29.3 23.8 95 0.6 NNE 6 9 3 5 1007.0 1006.7 12.8
22/04:30am 24.8 29.3 23.9 95 0.6 NE 7 11 4 6 1007.1 1006.8 12.8
22/04:00am 24.7 29.3 23.8 95 0.6 NNE 6 7 3 4 1007.2 1006.9 12.8
22/03:30am 24.8 29.3 23.9 95 0.6 NNE 7 9 4 5 1007.1 1006.8 12.8
22/03:00am 24.8 29.5 23.9 95 0.6 NNE 6 9 3 5 1007.3 1007.0 12.8
22/02:30am 24.7 29.3 23.8 95 0.6 ENE 6 7 3 4 1007.6 1007.3 12.8
22/02:00am 24.7 29.4 24.0 96 0.5 ENE 6 9 3 5 1008.1 1007.8 12.8
22/01:30am 24.7 29.8 24.0 96 0.5 ESE 4 7 2 4 1008.7 1008.4 12.8
22/01:20am 24.6 29.1 23.7 95 0.6 ESE 6 7 3 4 1009.0 1008.7 12.8
22/01:00am 24.7 30.4 23.8 95 0.6 CALM 0 0 0 0 1009.3 1009.0 12.8
22/12:36am 24.7 29.7 23.8 95 0.6 S 4 7 2 4 1009.5 1009.2 12.8
22/12:30am 24.7 30.1 23.8 95 0.6 SE 2 7 1 4 1009.5 1009.2 12.8
22/12:00am 24.5 29.0 23.6 95 0.6 NE 6 7 3 4 1009.7 1009.4 12.6
 
Date/Time
CST
Temp
°C
App
Temp
°C
Dew
Point
°C
Rel
Hum
%
Delta-T
°C
Wind Press
QNH
hPa
Press
MSL
hPa
Rain since
9am
mm
Dir  Spd
km/h
Gust
km/h
Spd
kts
Gust
kts
21/11:33pm 24.5 28.4 23.6 95 0.6 NNE 9 11 5 6 1010.2 1009.9 12.0
21/11:30pm 24.5 28.8 23.6 95 0.6 NNE 7 9 4 5 1010.3 1010.0 12.0
21/11:22pm 24.6 29.1 23.7 95 0.6 NNE 6 11 3 6 1010.3 1010.0 11.8
21/11:00pm 24.7 28.0 23.8 95 0.6 N 13 19 7 10 1010.8 1010.5 11.2
21/10:30pm 24.6 28.2 23.7 95 0.6 ENE 11 17 6 9 1010.3 1010.0 9.0
21/10:00pm 25.1 29.1 23.7 92 1.0 SE 9 15 5 8 1010.2 1009.9 6.8
21/09:43pm 25.2 29.4 23.4 90 1.2 NNW 7 11 4 6 1009.9 1009.6 6.6
21/09:30pm 25.5 29.4 23.0 86 1.7 NNW 7 15 4 8 1009.7 1009.4 5.8
21/09:22pm 25.9 30.0 23.0 84 2.0 WNW 6 11 3 6 1009.7 1009.4 4.8
21/09:00pm 26.1 29.2 22.2 79 2.6 WNW 9 13 5 7 1009.5 1009.2 3.4
21/08:30pm 26.9 31.0 21.6 72 3.5 - 2 9 1 5 1008.7 1008.4 3.4
21/08:00pm 28.0 33.6 24.8 83 2.2 NE 4 7 2 4 1007.7 1007.4 3.4
21/07:30pm 28.0 32.7 25.0 84 2.1 ESE 9 13 5 7 1006.4 1006.1 3.4
21/07:00pm 28.1 32.7 24.7 82 2.4 ENE 9 13 5 7 1006.8 1006.5 3.4
21/06:30pm 28.9 33.5 24.7 78 2.9 ENE 9 11 5 6 1006.4 1006.1 3.4
21/06:00pm 28.8 33.9 25.0 80 2.7 E 7 11 4 6 1006.2 1005.9 3.4
21/05:30pm 28.5 33.7 25.1 82 2.4 E 7 11 4 6 1006.2 1005.9 3.4
21/05:00pm 28.6 34.8 24.6 79 2.8 CALM 0 0 0 0 1006.2 1005.9 3.2
21/04:30pm 28.5 35.0 25.1 82 2.4 CALM 0 0 0 0 1006.2 1005.9 3.2
21/04:00pm 27.3 32.4 24.6 85 1.9 NW 6 9 3 5 1006.2 1005.9 3.2
21/03:30pm 26.5 29.8 23.8 85 1.9 WSW 13 28 7 15 1005.9 1005.6 3.0
21/03:01pm 28.0 33.7 25.0 84 2.1 SW 4 17 2 9 1005.9 1005.6 2.6
21/03:00pm 28.0 34.2 25.2 85 2.0 SW 2 17 1 9 1005.8 1005.5 2.6
21/02:41pm 26.9 27.2 22.3 76 3.1 WNW 24 41 13 22 1006.1 1005.8 2.0
21/02:39pm 27.8 29.1 22.7 74 3.5 WNW 20 41 11 22 1005.9 1005.6 0.4
21/02:30pm 33.4 35.8 21.5 49 8.1 N 11 19 6 10 1005.5 1005.2 0.2
21/02:00pm 33.6 36.7 22.1 51 7.9 NNW 9 22 5 12 1005.7 1005.4 0.2
21/01:30pm 32.3 37.3 23.8 61 5.9 S 4 9 2 5 1006.5 1006.2 0.2
21/01:00pm 30.2 34.0 24.1 70 4.2 S 11 17 6 9 1007.5 1007.2 0.0
21/12:30pm 28.8 33.6 24.1 76 3.3 NNW 6 11 3 6 1008.3 1008.0 0.0
21/12:00pm 31.8 35.0 23.1 60 6.0 NNW 11 17 6 9 1008.7 1008.4 0.0
21/11:30am 31.0 33.9 23.1 63 5.4 NNW 13 20 7 11 1009.4 1009.1 0.0
21/11:00am 30.2 33.6 23.4 67 4.7 NNW 11 19 6 10 1009.8 1009.5 0.0
21/10:30am 29.6 32.7 23.5 69 4.2 NW 13 19 7 10 1009.8 1009.5 0.0
21/10:00am 29.5 33.1 23.0 68 4.5 NNE 9 15 5 8 1009.7 1009.4 0.0
21/09:30am 29.0 33.1 23.2 71 4.0 NNE 7 11 4 6 1009.6 1009.3 0.0
21/09:00am 27.5 32.0 23.7 80 2.6 N 6 9 3 5 1009.6 1009.3 65.0
21/08:30am 26.6 31.4 23.5 83 2.1 NNE 4 7 2 4 1009.7 1009.4 65.0
21/08:00am 25.6 31.2 23.5 88 1.4 CALM 0 0 0 0 1009.5 1009.2 65.0
21/07:30am 25.4 30.8 23.3 88 1.4 CALM 0 6 0 3 1009.4 1009.1 65.0
21/07:00am 25.2 30.3 23.4 90 1.2 S 2 6 1 3 1009.3 1009.0 65.0
21/06:30am 25.0 29.3 23.6 92 1.0 SSW 7 9 4 5 1009.1 1008.8 65.0
21/06:00am 25.0 29.0 23.8 93 0.8 SSE 9 13 5 7 1008.8 1008.5 65.0
21/05:30am 24.9 29.7 23.5 92 1.0 SW 4 7 2 4 1008.7 1008.4 65.0
21/05:00am 24.9 29.4 23.7 93 0.8 SW 6 7 3 4 1008.5 1008.2 65.0
21/04:30am 24.7 29.1 23.5 93 0.8 W 6 9 3 5 1008.5 1008.2 65.0
21/04:00am 24.8 30.3 23.4 92 1.0 CALM 0 0 0 0 1008.7 1008.4 65.0
21/03:30am 24.9 29.6 23.3 91 1.1 SSW 4 7 2 4 1008.5 1008.2 65.0
21/03:00am 24.8 28.7 23.6 93 0.8 SW 9 13 5 7 1008.3 1008.0 65.0
21/02:30am 24.7 28.5 23.5 93 0.8 SW 9 13 5 7 1008.4 1008.1 65.0
21/02:00am 24.6 29.0 23.4 93 0.8 NW 6 7 3 4 1008.5 1008.2 65.0
21/01:30am 24.6 28.8 23.4 93 0.8 NNW 7 11 4 6 1009.1 1008.8 64.6
21/01:00am 24.7 28.3 23.1 91 1.1 N 9 13 5 7 1009.5 1009.2 64.4
21/12:30am 24.6 28.9 23.6 94 0.7 NE 7 11 4 6 1009.7 1009.4 64.4
21/12:00am 24.6 28.1 22.8 90 1.2 NNE 9 17 5 9 1010.1 1009.8 64.4
 
Date/Time
CST
Temp
°C
App
Temp
°C
Dew
Point
°C
Rel
Hum
%
Delta-T
°C
Wind Press
QNH
hPa
Press
MSL
hPa
Rain since
9am
mm
Dir  Spd
km/h
Gust
km/h
Spd
kts
Gust
kts
20/11:30pm 25.0 26.7 23.1 89 1.3 N 19 28 10 15 1010.1 1009.8 64.2
20/11:13pm 24.8 26.6 23.2 91 1.1 N 19 30 10 16 1010.0 1009.7 64.2
20/11:00pm 25.5 27.9 24.3 93 0.8 N 19 37 10 20 1010.2 1009.9 64.2
20/10:53pm 25.1 29.2 23.9 93 0.8 N 9 26 5 14 1010.2 1009.9 63.4
20/10:30pm 24.9 30.7 23.9 94 0.7 CALM 0 0 0 0 1009.6 1009.3 60.4
20/10:00pm 24.8 30.6 23.9 95 0.6 CALM 0 0 0 0 1009.0 1008.7 60.4
20/09:30pm 24.7 30.4 23.8 95 0.6 CALM 0 0 0 0 1008.7 1008.4 60.4
20/09:00pm 24.7 30.1 23.8 95 0.6 WSW 2 6 1 3 1008.4 1008.1 60.4
20/08:30pm 24.7 30.1 23.8 95 0.6 SSE 2 7 1 4 1007.6 1007.3 60.4
20/08:00pm 24.3 29.0 23.4 95 0.6 SW 4 9 2 5 1007.0 1006.7 60.4
20/07:30pm 24.2 28.5 23.3 95 0.6 SE 6 9 3 5 1006.6 1006.3 60.4
20/07:00pm 23.9 29.2 23.0 95 0.6 CALM 0 6 0 3 1006.9 1006.6 59.6
20/06:56pm 24.0 29.3 23.1 95 0.6 CALM 0 0 0 0 1006.9 1006.6 59.6
20/06:39pm 24.0 28.1 23.0 94 0.7 SW 6 9 3 5 1006.9 1006.6 58.8
20/06:30pm 23.8 27.3 22.8 94 0.7 WSW 9 11 5 6 1006.8 1006.5 58.4
20/06:00pm 23.9 26.3 23.0 95 0.6 SSW 15 22 8 12 1006.3 1006.0 57.4
20/05:48pm 23.5 27.0 22.8 96 0.5 WSW 9 20 5 11 1006.3 1006.0 57.2
20/05:30pm 22.4 22.4 21.6 95 0.5 WSW 24 35 13 19 1006.7 1006.4 56.2
20/05:21pm 22.2 22.3 21.2 94 0.7 WSW 22 33 12 18 1007.6 1007.3 54.4
20/05:00pm 22.4 22.0 21.6 95 0.5 N 26 56 14 30 1007.4 1007.1 44.8
20/04:45pm 23.1 18.8 21.5 91 1.1 N 46 76 25 41 1006.3 1006.0 14.2
20/04:43pm 23.4 20.2 21.7 90 1.1 N 41 76 22 41 1005.9 1005.6 10.4
20/04:35pm 26.1 25.9 23.4 85 1.8 N 30 52 16 28 1005.1 1004.8 2.4
20/04:30pm 28.1 27.1 22.6 72 3.7 N 32 52 17 28 1004.8 1004.5 0.0
20/04:24pm 31.0 30.9 20.0 52 7.3 NE 20 48 11 26 1004.0 1003.7 0.0
20/04:22pm 32.5 32.4 18.7 44 9.0 ENE 17 39 9 21 1004.1 1003.8 0.0
20/04:00pm 38.5 39.6 18.9 32 13.0 E 11 17 6 9 1002.8 1002.5 0.0
20/03:30pm 38.1 39.2 18.0 30 13.2 ESE 9 15 5 8 1002.7 1002.4 0.0
20/03:00pm 37.4 39.1 18.4 32 12.5 SE 7 15 4 8 1003.3 1003.0 0.0
20/02:30pm 37.2 38.8 19.2 35 12.0 SE 9 17 5 9 1004.2 1003.9 0.0
20/02:00pm 37.1 38.7 19.1 35 11.9 SSE 9 15 5 8 1005.1 1004.8 0.0
20/01:30pm 35.9 36.5 18.5 36 11.4 S 13 20 7 11 1005.9 1005.6 0.0
20/01:00pm 36.1 37.5 19.5 37 11.0 SSE 11 17 6 9 1006.4 1006.1 0.0
20/12:30pm 34.5 36.7 19.7 41 9.8 SSE 7 13 4 7 1006.9 1006.6 0.0
20/12:00pm 34.8 37.6 20.4 43 9.7 SE 6 9 3 5 1007.1 1006.8 0.0
20/11:30am 33.7 36.3 20.5 46 8.9 ENE 7 13 4 7 1007.5 1007.2 0.0
20/11:00am 33.0 35.5 20.2 47 8.5 ESE 7 9 4 5 1007.7 1007.4 0.0
20/10:30am 32.1 35.3 21.3 53 7.3 NE 6 11 3 6 1008.0 1007.7 0.0
20/10:00am 31.2 35.6 21.4 56 6.6 CALM 0 0 0 0 1008.1 1007.8 0.0
20/09:30am 30.0 33.2 22.4 63 5.2 SW 9 15 5 8 1008.4 1008.1 0.0

Other formats

Comma delimited format used in spreadsheet applications
http://www.bom.gov.au/fwo/IDD60801/IDD60801.94239.axf

JavaScript Object Notation format (JSON) in row-major order
http://www.bom.gov.au/fwo/IDD60801/IDD60801.94239.json

Data quality

Most of these data are generated automatically and are frequently updated. Quality checks on data are not normally performed. It is possible for incorrect values to appear. Refer to information at About Latest Weather Observations and please check the disclaimer before using these data.